Time;durP1;ratioP1;P1;durP2;ratioP2;P2;SDS_P1;SDS_P2;PMS_P1;PMS_P2;Temp;Humidity;BMP_temperature;BMP_pressure;BME280_temperature;BME280_humidity;BME280_pressure;Samples;Min_cycle;Max_cycle;Signal;HPM_P1;HPM_P2
2022/01/14 00:02:07;;;;;;;229.32;33.75;;;;;;;;;;5057894;28;20017;-66
2022/01/14 00:04:33;;;;;;;211.15;34.67;;;;;;;;;;5055617;28;20129;-66
2022/01/14 00:06:59;;;;;;;197.00;34.20;;;;;;;;;;5057671;28;20032;-66
2022/01/14 00:09:25;;;;;;;214.20;35.33;;;;;;;;;;5045057;28;20040;-65
2022/01/14 00:11:56;;;;;;;234.55;34.72;;;;;;;;;;5056694;28;20501;-66
2022/01/14 00:14:36;;;;;;;219.25;36.53;;;;;;;;;;5055153;28;20028;-66
2022/01/14 00:17:02;;;;;;;220.88;36.08;;;;;;;;;;5054334;28;20025;-66
2022/01/14 00:19:29;;;;;;;260.95;34.83;;;;;;;;;;5050581;28;20151;-65
2022/01/14 00:21:55;;;;;;;220.85;34.35;;;;;;;;;;5052797;28;20025;-65
2022/01/14 00:32:34;;;;;;;232.20;37.67;;;;;;;;;;5049464;28;20056;-65
2022/01/14 00:35:00;;;;;;;244.52;37.50;;;;;;;;;;5047113;28;20483;-65
2022/01/14 00:37:26;;;;;;;232.43;37.30;;;;;;;;;;5048671;28;20143;-65
2022/01/14 00:39:52;;;;;;;259.27;39.05;;;;;;;;;;5055879;28;20120;-65
2022/01/14 00:42:18;;;;;;;292.30;40.67;;;;;;;;;;5060941;28;20044;-65
2022/01/14 00:44:44;;;;;;;303.38;39.10;;;;;;;;;;5039218;28;20041;-65
2022/01/14 00:47:10;;;;;;;292.48;37.65;;;;;;;;;;5057210;28;20033;-68
2022/01/14 00:49:36;;;;;;;255.63;37.42;;;;;;;;;;5044935;28;20037;-66
2022/01/14 00:52:03;;;;;;;290.95;39.67;;;;;;;;;;5054473;28;20086;-66
2022/01/14 00:54:29;;;;;;;258.73;39.33;;;;;;;;;;5060652;28;20541;-66
2022/01/14 00:57:14;;;;;;;386.92;42.22;;;;;;;;;;5060020;28;20128;-66
2022/01/14 00:59:40;;;;;;;245.98;37.33;;;;;;;;;;5053687;28;20021;-65
2022/01/14 01:02:06;;;;;;;297.42;38.65;;;;;;;;;;5054762;28;20039;-66
2022/01/14 01:04:36;;;;;;;266.10;39.65;;;;;;;;;;5049073;28;20070;-65
2022/01/14 01:07:03;;;;;;;237.38;37.92;;;;;;;;;;5050765;28;20036;-65
2022/01/14 01:09:31;;;;;;;225.70;37.65;;;;;;;;;;5052828;28;20043;-66
2022/01/14 01:14:41;;;;;;;243.25;38.65;;;;;;;;;;5047880;28;20028;-66
2022/01/14 01:17:07;;;;;;;334.67;40.40;;;;;;;;;;5057402;28;20040;-66
2022/01/14 01:19:34;;;;;;;299.55;38.83;;;;;;;;;;5052893;28;20033;-66
2022/01/14 01:22:00;;;;;;;266.70;38.08;;;;;;;;;;5055102;28;20128;-66
2022/01/14 01:24:26;;;;;;;293.63;38.60;;;;;;;;;;5048313;28;20028;-65
2022/01/14 01:26:52;;;;;;;258.95;37.85;;;;;;;;;;5048793;28;20040;-65
2022/01/14 01:31:54;;;;;;;298.05;39.53;;;;;;;;;;5056081;28;20418;-65
2022/01/14 01:34:22;;;;;;;233.30;35.97;;;;;;;;;;5051310;28;20580;-66
2022/01/14 01:36:49;;;;;;;237.75;35.50;;;;;;;;;;5052416;28;20109;-66
2022/01/14 01:39:16;;;;;;;241.85;38.17;;;;;;;;;;5053110;28;20104;-66
2022/01/14 01:41:44;;;;;;;226.98;36.20;;;;;;;;;;5053857;28;20032;-67
2022/01/14 01:44:11;;;;;;;281.83;38.17;;;;;;;;;;5047016;28;20036;-66
2022/01/14 01:46:40;;;;;;;256.52;35.65;;;;;;;;;;5051861;28;20505;-66
2022/01/14 01:49:07;;;;;;;230.07;37.08;;;;;;;;;;5052868;28;20033;-66
2022/01/14 01:51:33;;;;;;;254.10;35.13;;;;;;;;;;5059077;28;20055;-66
2022/01/14 01:53:59;;;;;;;239.63;34.60;;;;;;;;;;5058415;28;20036;-65
2022/01/14 01:56:25;;;;;;;279.77;35.92;;;;;;;;;;5048125;28;20475;-65
2022/01/14 01:58:51;;;;;;;333.10;36.35;;;;;;;;;;5052847;28;20025;-65
2022/01/14 02:01:17;;;;;;;306.38;37.60;;;;;;;;;;5051294;28;20025;-66
2022/01/14 02:03:43;;;;;;;270.67;36.28;;;;;;;;;;5053969;28;20040;-65
2022/01/14 02:06:09;;;;;;;376.02;39.25;;;;;;;;;;5052598;28;20037;-66
2022/01/14 02:08:35;;;;;;;281.23;36.88;;;;;;;;;;5047527;28;20067;-66
2022/01/14 02:11:02;;;;;;;273.33;37.42;;;;;;;;;;5058562;28;20056;-66
2022/01/14 02:13:30;;;;;;;252.50;35.35;;;;;;;;;;5053487;28;20099;-66
2022/01/14 02:18:32;;;;;;;248.57;39.00;;;;;;;;;;5059477;28;20056;-66
2022/01/14 02:23:47;;;;;;;300.33;39.17;;;;;;;;;;5052847;28;20056;-66
2022/01/14 02:26:16;;;;;;;218.25;37.72;;;;;;;;;;5058376;28;20063;-66
2022/01/14 02:28:42;;;;;;;263.75;38.45;;;;;;;;;;5056581;28;20036;-66
2022/01/14 02:31:08;;;;;;;274.63;38.58;;;;;;;;;;5051953;28;20033;-66
2022/01/14 02:33:34;;;;;;;300.95;38.88;;;;;;;;;;5051783;28;20048;-66
2022/01/14 02:36:00;;;;;;;297.80;40.35;;;;;;;;;;5051995;28;20029;-66
2022/01/14 02:38:27;;;;;;;278.38;39.53;;;;;;;;;;5056798;28;20041;-66
2022/01/14 02:40:53;;;;;;;296.77;39.35;;;;;;;;;;5050668;28;20074;-66
2022/01/14 02:43:19;;;;;;;310.88;42.63;;;;;;;;;;5055627;28;20026;-66
2022/01/14 02:45:49;;;;;;;287.23;39.72;;;;;;;;;;5054615;28;20044;-67
2022/01/14 02:48:16;;;;;;;313.35;41.92;;;;;;;;;;5050407;28;20111;-66
2022/01/14 02:50:54;;;;;;;347.08;41.70;;;;;;;;;;5059574;28;20035;-66
2022/01/14 02:53:42;;;;;;;252.38;39.30;;;;;;;;;;5052326;28;20048;-65
2022/01/14 02:56:12;;;;;;;370.90;41.22;;;;;;;;;;5051251;28;20037;-66
2022/01/14 02:58:39;;;;;;;283.80;39.20;;;;;;;;;;5051687;28;20471;-66
2022/01/14 03:01:07;;;;;;;319.30;41.03;;;;;;;;;;5055591;28;20338;-66
2022/01/14 03:03:33;;;;;;;261.08;38.35;;;;;;;;;;5060248;28;20116;-66
2022/01/14 03:06:01;;;;;;;372.17;42.72;;;;;;;;;;5064493;28;20107;-66
2022/01/14 03:08:27;;;;;;;319.25;39.38;;;;;;;;;;5055787;28;20051;-66
2022/01/14 03:11:09;;;;;;;280.30;41.28;;;;;;;;;;5057481;28;20024;-66
2022/01/14 03:13:36;;;;;;;377.50;40.85;;;;;;;;;;5055782;28;20041;-66
2022/01/14 03:16:05;;;;;;;268.83;39.22;;;;;;;;;;5051132;28;20676;-66
2022/01/14 03:19:03;;;;;;;338.60;43.03;;;;;;;;;;5048817;28;20024;-65
2022/01/14 03:21:27;;;;;;;241.10;39.00;;;;;;;;;;5051391;28;20241;-65
2022/01/14 03:24:03;;;;;;;249.38;38.78;;;;;;;;;;5056300;28;20447;-65
2022/01/14 03:26:30;;;;;;;229.73;38.88;;;;;;;;;;5052981;28;20079;-65
2022/01/14 03:28:56;;;;;;;265.95;40.20;;;;;;;;;;5051251;28;20024;-65
2022/01/14 03:31:22;;;;;;;331.20;42.78;;;;;;;;;;5055600;28;20039;-65
2022/01/14 03:33:48;;;;;;;245.95;39.97;;;;;;;;;;5056864;28;20104;-66
2022/01/14 03:36:14;;;;;;;301.83;42.28;;;;;;;;;;5052919;28;20385;-66
2022/01/14 03:38:40;;;;;;;300.00;44.47;;;;;;;;;;5057829;28;20030;-66
2022/01/14 03:41:06;;;;;;;305.65;43.03;;;;;;;;;;5062591;28;20041;-66
2022/01/14 03:43:35;;;;;;;372.58;46.00;;;;;;;;;;5059526;28;20044;-66
2022/01/14 03:46:01;;;;;;;318.35;43.95;;;;;;;;;;5054095;28;20029;-66
2022/01/14 03:48:27;;;;;;;340.58;43.30;;;;;;;;;;5050370;28;20098;-65
2022/01/14 03:50:53;;;;;;;245.25;42.05;;;;;;;;;;5056078;28;20035;-65
2022/01/14 03:53:20;;;;;;;336.10;45.40;;;;;;;;;;5053386;28;20033;-66
2022/01/14 03:55:46;;;;;;;353.42;44.70;;;;;;;;;;5052654;28;20135;-65
2022/01/14 03:58:12;;;;;;;265.65;42.75;;;;;;;;;;5057916;28;20502;-66
2022/01/14 04:00:38;;;;;;;246.60;43.30;;;;;;;;;;5058555;28;20024;-66
2022/01/14 04:03:05;;;;;;;209.82;39.83;;;;;;;;;;5051699;28;20024;-66
2022/01/14 04:05:31;;;;;;;254.07;43.30;;;;;;;;;;5055320;28;20029;-66
2022/01/14 04:07:58;;;;;;;238.80;42.03;;;;;;;;;;5054694;28;20031;-66
2022/01/14 04:10:25;;;;;;;315.30;46.08;;;;;;;;;;5047754;28;20029;-66
2022/01/14 04:12:59;;;;;;;285.95;45.97;;;;;;;;;;5034324;28;20032;-66
2022/01/14 04:15:38;;;;;;;267.17;43.58;;;;;;;;;;5043030;28;20025;-66
2022/01/14 04:18:04;;;;;;;248.55;44.65;;;;;;;;;;5040346;28;22349;-66
2022/01/14 04:20:30;;;;;;;239.13;44.83;;;;;;;;;;5046447;28;20115;-66
2022/01/14 04:22:56;;;;;;;233.73;43.50;;;;;;;;;;5036720;28;20048;-66
2022/01/14 04:25:22;;;;;;;307.40;47.38;;;;;;;;;;5056111;28;20500;-66
2022/01/14 04:27:49;;;;;;;290.40;46.90;;;;;;;;;;5040346;28;20107;-66
2022/01/14 04:30:15;;;;;;;253.65;44.03;;;;;;;;;;5034024;28;20494;-66
2022/01/14 04:32:41;;;;;;;250.63;46.95;;;;;;;;;;5035091;28;20041;-67
2022/01/14 04:35:08;;;;;;;206.75;43.80;;;;;;;;;;5052397;28;20123;-66
2022/01/14 04:37:34;;;;;;;279.17;45.40;;;;;;;;;;5056378;28;20082;-66
2022/01/14 04:40:00;;;;;;;221.60;43.83;;;;;;;;;;5049864;28;20035;-66
2022/01/14 04:42:28;;;;;;;309.95;50.97;;;;;;;;;;5063410;28;20401;-66
2022/01/14 04:44:55;;;;;;;255.30;43.47;;;;;;;;;;5046159;28;20272;-66
2022/01/14 04:47:43;;;;;;;277.50;48.25;;;;;;;;;;5058878;28;20053;-66
2022/01/14 04:50:10;;;;;;;225.38;43.58;;;;;;;;;;5046202;28;20071;-66
2022/01/14 04:52:36;;;;;;;210.90;44.00;;;;;;;;;;5049906;28;20130;-66
2022/01/14 04:55:03;;;;;;;255.43;45.35;;;;;;;;;;5048285;28;20055;-65
2022/01/14 04:57:28;;;;;;;383.10;54.35;;;;;;;;;;5052214;28;20043;-66
2022/01/14 04:59:55;;;;;;;351.15;46.60;;;;;;;;;;5051838;28;20447;-66
2022/01/14 05:02:21;;;;;;;285.58;46.30;;;;;;;;;;5057244;28;20478;-66
2022/01/14 05:04:47;;;;;;;248.98;45.25;;;;;;;;;;5050874;28;20083;-66
2022/01/14 05:07:23;;;;;;;274.38;45.90;;;;;;;;;;5053022;28;20063;-66
2022/01/14 05:10:07;;;;;;;319.08;47.35;;;;;;;;;;5056780;28;21557;-66
2022/01/14 05:12:38;;;;;;;279.42;44.35;;;;;;;;;;5052923;28;20637;-66
2022/01/14 05:15:05;;;;;;;260.42;45.15;;;;;;;;;;5048111;28;20054;-66
2022/01/14 05:17:31;;;;;;;333.20;47.70;;;;;;;;;;5048295;28;20040;-66
2022/01/14 05:19:58;;;;;;;331.63;46.20;;;;;;;;;;5048453;28;20036;-66
2022/01/14 05:22:24;;;;;;;258.08;44.25;;;;;;;;;;5060650;28;20029;-66
2022/01/14 05:24:50;;;;;;;363.95;48.60;;;;;;;;;;5054456;28;20024;-66
2022/01/14 05:27:17;;;;;;;246.25;44.20;;;;;;;;;;5057235;28;20063;-67
2022/01/14 05:29:43;;;;;;;222.43;43.20;;;;;;;;;;5045614;28;20055;-66
2022/01/14 05:32:13;;;;;;;282.33;45.13;;;;;;;;;;5063998;28;20295;-66
2022/01/14 05:34:39;;;;;;;297.38;45.42;;;;;;;;;;5057169;28;20044;-67
2022/01/14 05:37:06;;;;;;;296.83;43.80;;;;;;;;;;5056750;28;20032;-66
2022/01/14 05:39:32;;;;;;;245.10;44.58;;;;;;;;;;5054201;28;20044;-66
2022/01/14 05:41:59;;;;;;;303.77;44.83;;;;;;;;;;5063227;28;20032;-65
2022/01/14 05:44:26;;;;;;;301.20;46.63;;;;;;;;;;5051578;28;20114;-66
2022/01/14 05:46:52;;;;;;;198.13;42.30;;;;;;;;;;5053387;28;20037;-66
2022/01/14 05:49:18;;;;;;;272.65;46.70;;;;;;;;;;5051573;28;20028;-66
2022/01/14 05:51:45;;;;;;;257.70;44.80;;;;;;;;;;5056151;28;20021;-66
2022/01/14 05:54:11;;;;;;;299.80;43.45;;;;;;;;;;5061673;28;20475;-66
2022/01/14 05:56:37;;;;;;;271.65;43.03;;;;;;;;;;5054433;28;20467;-65
2022/01/14 05:59:03;;;;;;;211.30;41.53;;;;;;;;;;5054406;28;20172;-66
2022/01/14 06:01:33;;;;;;;251.60;43.25;;;;;;;;;;5048892;28;20033;-66
2022/01/14 06:03:59;;;;;;;236.48;42.38;;;;;;;;;;5054311;28;20033;-66
2022/01/14 06:06:25;;;;;;;286.55;44.53;;;;;;;;;;5053358;28;20032;-66
2022/01/14 06:08:51;;;;;;;254.10;43.85;;;;;;;;;;5047845;28;20128;-66
2022/01/14 06:11:18;;;;;;;230.80;42.10;;;;;;;;;;5053513;28;20040;-67
2022/01/14 06:13:44;;;;;;;180.38;41.63;;;;;;;;;;5052166;28;20087;-66
2022/01/14 06:16:10;;;;;;;176.57;42.15;;;;;;;;;;5057828;28;20317;-66
2022/01/14 06:18:36;;;;;;;191.82;40.95;;;;;;;;;;5055413;28;20117;-66
2022/01/14 06:21:02;;;;;;;259.15;46.28;;;;;;;;;;5052521;28;20029;-67
2022/01/14 06:23:28;;;;;;;175.20;41.25;;;;;;;;;;5052100;28;20029;-66
2022/01/14 06:25:54;;;;;;;209.07;41.78;;;;;;;;;;5065057;28;20489;-66
2022/01/14 06:28:20;;;;;;;196.40;42.53;;;;;;;;;;5058423;28;20017;-66
2022/01/14 06:30:46;;;;;;;174.27;40.25;;;;;;;;;;5058513;28;20033;-66
2022/01/14 06:33:12;;;;;;;157.15;39.05;;;;;;;;;;5066209;28;20260;-66
2022/01/14 06:35:38;;;;;;;163.80;40.15;;;;;;;;;;5056170;28;20031;-66
2022/01/14 06:38:05;;;;;;;140.57;38.42;;;;;;;;;;5067057;28;20033;-66
2022/01/14 06:40:31;;;;;;;145.48;39.65;;;;;;;;;;5060819;28;20058;-66
2022/01/14 06:42:57;;;;;;;152.52;38.55;;;;;;;;;;5050987;28;20092;-66
2022/01/14 06:45:23;;;;;;;127.88;38.13;;;;;;;;;;5051455;28;20074;-66
2022/01/14 06:47:49;;;;;;;148.45;37.78;;;;;;;;;;5049592;28;20024;-66
2022/01/14 06:50:16;;;;;;;132.55;37.70;;;;;;;;;;5050760;28;20031;-66
2022/01/14 06:52:42;;;;;;;132.05;37.53;;;;;;;;;;5056041;28;20516;-66
2022/01/14 06:55:08;;;;;;;145.73;39.15;;;;;;;;;;5059665;28;20055;-67
2022/01/14 06:57:35;;;;;;;137.02;38.10;;;;;;;;;;5055533;28;20182;-66
2022/01/14 07:00:02;;;;;;;141.63;37.83;;;;;;;;;;5052672;28;20047;-65
2022/01/14 07:02:28;;;;;;;139.32;38.78;;;;;;;;;;5050604;28;20099;-66
2022/01/14 07:04:54;;;;;;;124.90;37.00;;;;;;;;;;5049735;28;20025;-65
2022/01/14 07:07:20;;;;;;;138.52;37.95;;;;;;;;;;5057527;28;20549;-66
2022/01/14 07:09:55;;;;;;;149.50;40.75;;;;;;;;;;5054404;28;20553;-66
2022/01/14 07:12:23;;;;;;;160.85;39.83;;;;;;;;;;5054166;28;20032;-65
2022/01/14 07:14:49;;;;;;;171.77;39.58;;;;;;;;;;5058165;28;20044;-65
2022/01/14 07:17:15;;;;;;;158.02;39.78;;;;;;;;;;5071352;28;20031;-66
2022/01/14 07:19:41;;;;;;;150.05;39.30;;;;;;;;;;5049052;28;20048;-65
2022/01/14 07:22:07;;;;;;;114.38;36.55;;;;;;;;;;5051184;28;20021;-65
2022/01/14 07:24:33;;;;;;;138.43;38.97;;;;;;;;;;5037918;28;20419;-65
2022/01/14 07:26:59;;;;;;;145.40;38.80;;;;;;;;;;5045759;28;20121;-67
2022/01/14 07:29:25;;;;;;;166.45;41.97;;;;;;;;;;5045798;28;20471;-66
2022/01/14 07:31:51;;;;;;;126.15;38.85;;;;;;;;;;5050832;28;20025;-66
2022/01/14 07:34:17;;;;;;;115.47;35.80;;;;;;;;;;5050774;28;20058;-65
2022/01/14 07:36:43;;;;;;;136.77;39.55;;;;;;;;;;5059410;28;20434;-65
2022/01/14 07:39:09;;;;;;;144.30;38.72;;;;;;;;;;5045435;28;20486;-65
2022/01/14 07:41:36;;;;;;;117.97;38.30;;;;;;;;;;5054582;28;20509;-65
2022/01/14 07:44:03;;;;;;;138.43;41.15;;;;;;;;;;5047484;28;20044;-65
2022/01/14 07:46:29;;;;;;;132.50;38.30;;;;;;;;;;5050138;28;20525;-66
2022/01/14 07:48:55;;;;;;;124.70;37.47;;;;;;;;;;5045876;28;20115;-67
2022/01/14 07:51:21;;;;;;;118.90;38.40;;;;;;;;;;5056303;28;20028;-66
2022/01/14 07:53:47;;;;;;;120.40;38.13;;;;;;;;;;5062474;28;20030;-66
2022/01/14 07:56:13;;;;;;;114.35;37.75;;;;;;;;;;5058451;28;20047;-66
2022/01/14 07:58:41;;;;;;;145.30;41.22;;;;;;;;;;5056603;28;20033;-66
2022/01/14 08:01:08;;;;;;;119.38;37.65;;;;;;;;;;5052780;28;20052;-66
2022/01/14 08:03:34;;;;;;;124.40;39.95;;;;;;;;;;5036310;28;20446;-65
2022/01/14 08:06:01;;;;;;;130.38;39.65;;;;;;;;;;5039349;28;20541;-65
2022/01/14 08:08:28;;;;;;;123.05;37.70;;;;;;;;;;5041378;28;20157;-65
2022/01/14 08:10:54;;;;;;;130.90;38.97;;;;;;;;;;5036682;28;20509;-66
2022/01/14 08:13:20;;;;;;;136.02;41.05;;;;;;;;;;5036213;28;20564;-65
2022/01/14 08:15:47;;;;;;;126.32;40.45;;;;;;;;;;5041735;28;20056;-66
2022/01/14 08:18:13;;;;;;;113.57;38.95;;;;;;;;;;5054798;28;20036;-67
2022/01/14 08:20:40;;;;;;;123.13;38.83;;;;;;;;;;5043077;28;20033;-66
2022/01/14 08:23:06;;;;;;;124.95;40.75;;;;;;;;;;5047511;28;20029;-66
2022/01/14 08:25:32;;;;;;;130.07;38.05;;;;;;;;;;5055237;28;20074;-66
2022/01/14 08:27:58;;;;;;;121.28;38.58;;;;;;;;;;5061260;28;20041;-66
2022/01/14 08:30:24;;;;;;;117.35;39.58;;;;;;;;;;5055822;28;20032;-65
2022/01/14 08:32:50;;;;;;;102.88;39.60;;;;;;;;;;5062009;28;20107;-66
2022/01/14 08:35:16;;;;;;;101.40;39.85;;;;;;;;;;5054108;28;20029;-66
2022/01/14 08:37:43;;;;;;;110.88;39.72;;;;;;;;;;5046413;28;20025;-66
2022/01/14 08:40:11;;;;;;;116.25;40.17;;;;;;;;;;5048930;28;20045;-66
2022/01/14 08:42:37;;;;;;;117.43;40.55;;;;;;;;;;5047145;28;20103;-66
2022/01/14 08:45:07;;;;;;;100.80;39.55;;;;;;;;;;5051932;28;20037;-66
2022/01/14 08:47:33;;;;;;;107.20;40.85;;;;;;;;;;5050334;28;20044;-66
2022/01/14 08:49:59;;;;;;;116.07;41.60;;;;;;;;;;5055519;28;20028;-66
2022/01/14 08:52:25;;;;;;;115.60;40.60;;;;;;;;;;5049845;28;20124;-67
2022/01/14 08:54:51;;;;;;;106.53;40.03;;;;;;;;;;5061754;28;20036;-66
2022/01/14 08:57:18;;;;;;;107.45;41.10;;;;;;;;;;5065068;28;20032;-67
2022/01/14 08:59:44;;;;;;;104.57;41.47;;;;;;;;;;5050348;28;20032;-66
2022/01/14 09:02:10;;;;;;;106.45;41.17;;;;;;;;;;5047696;28;20022;-66
2022/01/14 09:04:36;;;;;;;98.32;38.95;;;;;;;;;;5054549;28;20049;-66
2022/01/14 09:07:03;;;;;;;101.60;38.72;;;;;;;;;;5050115;28;20521;-66
2022/01/14 09:09:29;;;;;;;103.00;40.53;;;;;;;;;;5051383;28;20033;-66
2022/01/14 09:11:55;;;;;;;98.00;38.83;;;;;;;;;;5064000;28;20021;-66
2022/01/14 09:14:22;;;;;;;98.57;38.70;;;;;;;;;;5061314;28;20111;-66
2022/01/14 09:16:48;;;;;;;88.40;37.72;;;;;;;;;;5056118;28;20031;-66
2022/01/14 09:19:14;;;;;;;102.88;38.92;;;;;;;;;;5054132;28;20052;-66
2022/01/14 09:21:43;;;;;;;106.22;40.60;;;;;;;;;;5053539;28;20040;-66
2022/01/14 09:24:09;;;;;;;100.10;39.22;;;;;;;;;;5060605;28;20511;-66
2022/01/14 09:26:36;;;;;;;103.78;40.38;;;;;;;;;;5055624;28;20521;-66
2022/01/14 09:29:03;;;;;;;106.20;38.53;;;;;;;;;;5054885;28;20453;-66
2022/01/14 09:31:29;;;;;;;97.72;39.65;;;;;;;;;;5056559;28;20107;-66
2022/01/14 09:33:55;;;;;;;89.10;38.22;;;;;;;;;;5054644;28;20119;-66
2022/01/14 09:36:21;;;;;;;83.45;38.92;;;;;;;;;;5053490;28;20539;-65
2022/01/14 09:38:47;;;;;;;90.75;38.42;;;;;;;;;;5058333;28;20499;-65
2022/01/14 09:41:14;;;;;;;75.95;36.08;;;;;;;;;;5052754;28;20241;-65
2022/01/14 09:43:40;;;;;;;96.53;40.65;;;;;;;;;;5062855;28;20080;-64
2022/01/14 09:46:08;;;;;;;80.18;37.47;;;;;;;;;;5060078;28;20033;-64
2022/01/14 09:48:34;;;;;;;87.35;39.08;;;;;;;;;;5055140;28;20498;-65
2022/01/14 09:51:00;;;;;;;87.32;38.03;;;;;;;;;;5056218;28;20033;-65
2022/01/14 09:53:27;;;;;;;79.82;37.95;;;;;;;;;;5052942;28;20427;-65
2022/01/14 09:55:53;;;;;;;84.50;38.08;;;;;;;;;;5049615;28;20040;-65
2022/01/14 09:58:19;;;;;;;92.43;39.13;;;;;;;;;;5053330;28;20041;-65
2022/01/14 10:00:45;;;;;;;74.13;36.45;;;;;;;;;;5058490;28;20218;-65
2022/01/14 10:03:37;;;;;;;76.72;37.05;;;;;;;;;;5060219;28;20059;-65
2022/01/14 10:06:04;;;;;;;88.55;38.22;;;;;;;;;;5051995;28;20502;-65
2022/01/14 10:08:30;;;;;;;75.22;38.13;;;;;;;;;;5062156;28;20493;-64
2022/01/14 10:10:59;;;;;;;86.43;38.50;;;;;;;;;;5054836;28;20557;-64
2022/01/14 10:13:29;;;;;;;82.30;36.70;;;;;;;;;;5057198;28;20029;-64
2022/01/14 10:16:03;;;;;;;75.22;36.17;;;;;;;;;;5060187;28;20094;-64
2022/01/14 10:18:30;;;;;;;74.47;36.45;;;;;;;;;;5049894;28;20060;-64
2022/01/14 10:21:05;;;;;;;72.68;35.42;;;;;;;;;;5052741;28;20151;-65
2022/01/14 10:23:53;;;;;;;73.50;35.58;;;;;;;;;;5063721;28;20575;-65
2022/01/14 10:26:20;;;;;;;69.88;35.67;;;;;;;;;;5055963;28;20037;-65
2022/01/14 10:29:07;;;;;;;64.25;35.03;;;;;;;;;;5050135;28;20071;-65
2022/01/14 10:31:37;;;;;;;61.80;33.65;;;;;;;;;;5050708;28;20029;-65
2022/01/14 10:34:13;;;;;;;64.50;32.78;;;;;;;;;;5050753;28;20028;-66
2022/01/14 10:36:39;;;;;;;71.95;35.15;;;;;;;;;;5054957;28;20059;-65
2022/01/14 10:39:18;;;;;;;59.88;33.40;;;;;;;;;;5051176;28;20044;-65
2022/01/14 10:41:44;;;;;;;67.95;35.03;;;;;;;;;;5040698;28;20081;-64
2022/01/14 10:44:27;;;;;;;61.97;33.30;;;;;;;;;;5065202;28;20091;-65
2022/01/14 10:47:12;;;;;;;67.80;35.47;;;;;;;;;;5050944;28;20021;-65
2022/01/14 10:49:39;;;;;;;67.07;34.08;;;;;;;;;;5049536;28;20017;-65
2022/01/14 10:52:16;;;;;;;59.58;34.35;;;;;;;;;;5049242;28;20043;-65
2022/01/14 10:54:43;;;;;;;62.88;34.88;;;;;;;;;;5050899;28;20021;-64
2022/01/14 10:57:13;;;;;;;65.22;35.25;;;;;;;;;;5050700;28;20032;-65
2022/01/14 10:59:39;;;;;;;63.15;33.83;;;;;;;;;;5050737;28;20038;-66
2022/01/14 11:02:30;;;;;;;61.58;31.98;;;;;;;;;;5053604;28;20116;-65
2022/01/14 11:05:02;;;;;;;50.55;25.00;;;;;;;;;;5050731;28;20419;-65
2022/01/14 11:07:28;;;;;;;60.40;33.33;;;;;;;;;;5050038;28;20697;-65
2022/01/14 11:09:57;;;;;;;60.20;32.92;;;;;;;;;;5049813;28;20032;-66
2022/01/14 11:12:23;;;;;;;66.25;33.67;;;;;;;;;;5051785;28;20036;-66
2022/01/14 11:14:49;;;;;;;59.35;31.55;;;;;;;;;;5070340;28;20031;-66
2022/01/14 11:17:15;;;;;;;55.60;32.85;;;;;;;;;;5070374;28;20067;-64
2022/01/14 11:19:45;;;;;;;57.08;33.08;;;;;;;;;;5056588;28;20081;-65
2022/01/14 11:24:55;;;;;;;58.35;31.45;;;;;;;;;;5032729;28;20371;-66
2022/01/14 11:27:22;;;;;;;54.17;33.03;;;;;;;;;;5049122;28;20517;-65
2022/01/14 11:29:49;;;;;;;54.15;31.65;;;;;;;;;;5049960;28;20037;-65
2022/01/14 11:32:15;;;;;;;58.65;33.58;;;;;;;;;;5052065;28;20037;-65
2022/01/14 11:34:42;;;;;;;49.97;32.47;;;;;;;;;;5049344;28;20097;-66
2022/01/14 11:37:10;;;;;;;48.80;30.38;;;;;;;;;;5049422;28;20033;-65
2022/01/14 11:39:38;;;;;;;61.22;32.50;;;;;;;;;;5049563;28;20084;-65
2022/01/14 11:42:04;;;;;;;45.90;29.92;;;;;;;;;;5046092;28;20098;-66
2022/01/14 11:45:00;;;;;;;55.72;32.05;;;;;;;;;;5050444;28;20037;-65
2022/01/14 11:47:36;;;;;;;56.67;30.63;;;;;;;;;;5049318;28;20400;-65
2022/01/14 11:50:04;;;;;;;52.55;29.85;;;;;;;;;;5053806;28;20033;-67
2022/01/14 11:52:40;;;;;;;46.90;28.77;;;;;;;;;;5046789;28;20052;-65
2022/01/14 11:55:26;;;;;;;54.90;29.75;;;;;;;;;;5045615;28;20039;-65
2022/01/14 11:57:52;;;;;;;61.70;31.58;;;;;;;;;;5038850;28;20090;-66
2022/01/14 12:00:27;;;;;;;55.28;31.73;;;;;;;;;;5048395;28;20440;-65
2022/01/14 12:03:13;;;;;;;53.88;31.52;;;;;;;;;;5046027;28;20021;-66
2022/01/14 12:06:00;;;;;;;59.40;30.75;;;;;;;;;;5045919;28;20498;-66
2022/01/14 12:08:27;;;;;;;51.78;30.30;;;;;;;;;;5052859;28;20108;-66
2022/01/14 12:10:54;;;;;;;51.92;30.70;;;;;;;;;;5048041;28;20024;-66
2022/01/14 12:13:26;;;;;;;53.90;29.52;;;;;;;;;;5036915;28;20117;-66
2022/01/14 12:16:01;;;;;;;48.22;29.65;;;;;;;;;;5048760;28;20029;-66
2022/01/14 12:18:46;;;;;;;50.08;30.73;;;;;;;;;;5036377;28;20029;-66
2022/01/14 12:21:12;;;;;;;55.55;30.50;;;;;;;;;;5043394;28;20047;-66
2022/01/14 12:23:38;;;;;;;57.17;32.22;;;;;;;;;;5040200;28;20077;-66
2022/01/14 12:26:15;;;;;;;59.30;32.17;;;;;;;;;;5047992;28;21128;-66
2022/01/14 12:28:42;;;;;;;50.33;30.02;;;;;;;;;;5045891;28;20037;-66
2022/01/14 12:31:08;;;;;;;50.33;29.92;;;;;;;;;;5045810;28;20131;-67
2022/01/14 12:33:41;;;;;;;54.67;31.00;;;;;;;;;;5033511;28;20368;-66
2022/01/14 12:36:10;;;;;;;51.35;30.17;;;;;;;;;;5044123;28;20143;-66
2022/01/14 12:38:38;;;;;;;53.72;30.95;;;;;;;;;;5058675;28;20119;-66
2022/01/14 12:41:04;;;;;;;49.80;29.35;;;;;;;;;;5047906;28;20067;-66
2022/01/14 12:43:30;;;;;;;53.28;30.45;;;;;;;;;;5047804;28;20076;-65
2022/01/14 12:46:11;;;;;;;57.67;30.98;;;;;;;;;;5068444;28;20025;-65
2022/01/14 12:48:46;;;;;;;52.65;30.13;;;;;;;;;;5053511;28;20462;-65
2022/01/14 12:51:16;;;;;;;49.72;31.40;;;;;;;;;;5028097;28;20096;-66
2022/01/14 12:53:50;;;;;;;52.83;30.33;;;;;;;;;;5036930;28;20116;-65
2022/01/14 12:56:17;;;;;;;46.05;30.10;;;;;;;;;;5032765;28;20091;-65
2022/01/14 12:58:53;;;;;;;47.95;29.40;;;;;;;;;;5035499;28;20233;-65
2022/01/14 13:01:19;;;;;;;50.33;29.85;;;;;;;;;;5046208;28;20033;-65
2022/01/14 13:03:46;;;;;;;52.88;31.10;;;;;;;;;;5038576;28;20022;-65
2022/01/14 13:06:12;;;;;;;44.97;27.20;;;;;;;;;;5040728;28;20028;-65
2022/01/14 13:08:38;;;;;;;49.85;28.67;;;;;;;;;;5045733;28;20394;-65
2022/01/14 13:11:04;;;;;;;51.80;29.52;;;;;;;;;;4867256;28;102750;-65
2022/01/14 13:13:31;;;;;;;46.30;28.40;;;;;;;;;;4980970;28;20031;-65
2022/01/14 13:16:05;;;;;;;48.97;29.70;;;;;;;;;;4949685;28;20059;-65
2022/01/14 13:18:37;;;;;;;53.10;27.80;;;;;;;;;;4964464;28;20035;-65
2022/01/14 13:21:04;;;;;;;47.47;29.55;;;;;;;;;;4961369;28;20027;-65
2022/01/14 13:23:30;;;;;;;49.00;27.60;;;;;;;;;;4959999;28;20126;-65
2022/01/14 13:25:59;;;;;;;48.15;28.00;;;;;;;;;;4955933;28;20036;-65
2022/01/14 13:28:25;;;;;;;52.58;29.65;;;;;;;;;;4951616;28;20496;-65
2022/01/14 13:30:52;;;;;;;51.10;31.20;;;;;;;;;;4954996;28;20078;-65
2022/01/14 13:33:18;;;;;;;58.75;31.15;;;;;;;;;;4963541;28;20031;-65
2022/01/14 13:35:50;;;;;;;55.97;30.67;;;;;;;;;;4981735;28;20517;-65
2022/01/14 13:38:18;;;;;;;51.72;29.42;;;;;;;;;;4965388;28;20379;-66
2022/01/14 13:40:52;;;;;;;52.92;30.95;;;;;;;;;;4958259;28;20139;-65
2022/01/14 13:43:22;;;;;;;55.58;31.30;;;;;;;;;;4962978;28;20118;-65
2022/01/14 13:45:49;;;;;;;53.47;29.23;;;;;;;;;;4954318;28;20089;-65
2022/01/14 13:48:24;;;;;;;51.50;30.33;;;;;;;;;;4955262;28;20070;-66
2022/01/14 13:50:51;;;;;;;60.83;29.85;;;;;;;;;;4965512;28;20031;-65
2022/01/14 13:53:21;;;;;;;54.60;32.35;;;;;;;;;;4953785;28;20031;-65
2022/01/14 13:55:50;;;;;;;59.28;33.55;;;;;;;;;;4953410;28;20043;-65
2022/01/14 13:58:21;;;;;;;55.45;32.70;;;;;;;;;;4983244;28;20042;-65
2022/01/14 14:00:48;;;;;;;53.92;33.25;;;;;;;;;;4965508;28;20098;-65
2022/01/14 14:03:17;;;;;;;52.95;30.90;;;;;;;;;;4967049;28;20105;-66
2022/01/14 14:05:48;;;;;;;58.60;31.75;;;;;;;;;;4950542;28;20034;-65
2022/01/14 14:08:38;;;;;;;;;;;;;;;;;;4953642;28;20078;-65
2022/01/14 14:16:55;;;;;;;58.92;30.88;;;;;;;;;;4954538;28;20065;-66
2022/01/14 14:19:22;;;;;;;54.47;31.88;;;;;;;;;;4956988;28;20532;-65
2022/01/14 14:22:07;;;;;;;59.70;32.03;;;;;;;;;;4964976;28;20025;-65
2022/01/14 14:24:33;;;;;;;57.88;33.50;;;;;;;;;;4962168;28;20038;-65
2022/01/14 14:27:13;;;;;;;57.50;31.75;;;;;;;;;;5017425;28;20031;-65
2022/01/14 14:29:43;;;;;;;55.80;31.00;;;;;;;;;;4968756;28;20371;-65
2022/01/14 14:32:26;;;;;;;52.10;30.60;;;;;;;;;;4972137;28;20113;-65
2022/01/14 14:34:53;;;;;;;50.33;28.23;;;;;;;;;;4954022;28;20555;-65
2022/01/14 14:37:19;;;;;;;59.28;31.55;;;;;;;;;;4959815;28;20037;-65
2022/01/14 14:39:45;;;;;;;52.92;30.23;;;;;;;;;;4970153;28;20331;-65
2022/01/14 14:42:11;;;;;;;55.08;29.67;;;;;;;;;;4970345;28;20038;-65
2022/01/14 14:44:38;;;;;;;51.63;29.17;;;;;;;;;;4969214;28;20135;-65